Airfield :
LOGIN :

Register | Disclaimer

   EN    FR    IT 

 










Legend :    VFR   Marginal VFR   IFR   Intensive IFR   Very Intensive IFR
Visi :
Ceiling :
>= 8 km
>= 3000ft
5 to 8 km
1000 to 3000 ft
1500m to 5 km
500 to 1000 ft
800 to 1500m
200 to 500 ft
< 800m
< 200 ft
Symbols :   Thunderstorms  Fog  Heavy snow  Heavy precipitations  Wind > 20 kt
SIGMETs :     Misc.  Thunderstorms  Icing  Turbulence  Mountain Waves  Volcanic Ashes






- Airport Elevation : 65 ft
- IATA code : PMO


LICJ - Palermo Punta Raisi

CURRENT METAR :
  • 290650Z 03004KT 360V070 9999 BKN070 15/07 Q1008

EXPIRED METARs :
  • 290620Z VRB01KT 9999 BKN070 14/09 Q1009
  • 290550Z 11006KT 9999 BKN075 13/09 Q1009
  • 290520Z 07004KT 9999 FEW040 SCT070 13/09 Q1008
  • 290450Z 08007KT 030V100 9999 -RA FEW040 SCT070 13/08 Q1008
  • 290420Z VRB02KT 9999 FEW040 SCT070 14/08 Q1009

TAF TAF LICJ
Valid from the 29 at 06:00 until the 30 at 06:00 UTC


290500Z 2906/3006 18006KT 9999 SCT030
BECMG 2906/2908 07010KT
TEMPO 2911/2922 4000 TSRA
BECMG 2914/2916 18008KT



MET'MAP, your aeronautical weather chart ! - Copyright ORBIFLY December 2007 - Disclaimer

ORBIFLY MET'MAP TEAM :

Programming & Development : Alexandra Zaïnal
Original concept : Baudouin d'Aumeries
Technical & hardware support : Manuel Goepfert
Assistance : Marc-Olivier Méhu




SOURCES & CREDITS :

   NOAA